TimeCET,TemperatureF,Dew PointF,Humidity,Sea Level PressureIn,VisibilityMPH,Wind Direction,Wind SpeedMPH,Gust SpeedMPH,PrecipitationIn,Events,Conditions,WindDirDegrees,DateUTC
12:00 AM,44.6,44.6,100,29.92,6.2,SSW,3.5,-,N/A,,Partly Cloudy,200,2012-11-04 23:00:00
12:30 AM,44.6,44.6,100,29.95,6.2,SSW,3.5,-,N/A,,Partly Cloudy,200,2012-11-04 23:30:00
1:00 AM,46.4,44.6,93,29.95,6.2,SW,6.9,-,N/A,,Scattered Clouds,220,2012-11-05 00:00:00
1:30 AM,46.4,46.4,100,29.95,6.2,Variable,2.3,-,N/A,Rain,Light Rain Showers,0,2012-11-05 00:30:00
2:00 AM,46.4,44.6,93,29.95,6.2,SW,3.5,-,N/A,,Partly Cloudy,220,2012-11-05 01:00:00
2:30 AM,44.6,44.6,100,29.95,6.2,Variable,2.3,-,N/A,,Partly Cloudy,0,2012-11-05 01:30:00
3:00 AM,44.6,44.6,100,29.95,6.2,Variable,2.3,-,N/A,,Partly Cloudy,0,2012-11-05 02:00:00
3:30 AM,46.4,44.6,93,29.95,6.2,SSW,5.8,-,N/A,,Scattered Clouds,210,2012-11-05 02:30:00
4:00 AM,46.4,46.4,100,29.95,6.2,Variable,2.3,-,N/A,,Scattered Clouds,0,2012-11-05 03:00:00
4:30 AM,46.4,46.4,100,29.95,6.2,SW,4.6,-,N/A,,Scattered Clouds,220,2012-11-05 03:30:00
5:00 AM,46.4,46.4,100,29.95,6.2,SW,4.6,-,N/A,,Scattered Clouds,230,2012-11-05 04:00:00
5:30 AM,46.4,46.4,100,29.95,6.2,SW,4.6,-,N/A,,Scattered Clouds,230,2012-11-05 04:30:00
6:00 AM,46.4,44.6,93,29.98,6.2,WSW,4.6,-,N/A,,Partly Cloudy,250,2012-11-05 05:00:00
6:30 AM,42.8,42.8,100,29.98,6.2,Variable,1.2,-,N/A,,Partly Cloudy,0,2012-11-05 05:30:00
7:00 AM,44.6,44.6,100,29.98,6.2,Variable,2.3,-,N/A,,Partly Cloudy,0,2012-11-05 06:00:00
7:30 AM,44.6,44.6,100,29.98,6.2,Variable,2.3,-,N/A,,Partly Cloudy,0,2012-11-05 06:30:00
8:00 AM,46.4,44.6,93,29.98,6.2,Variable,2.3,-,N/A,,Partly Cloudy,0,2012-11-05 07:00:00
8:30 AM,46.4,46.4,100,30.01,6.2,SW,3.5,-,N/A,,Scattered Clouds,220,2012-11-05 07:30:00
9:00 AM,46.4,44.6,93,30.01,6.2,SSW,3.5,-,N/A,,Scattered Clouds,200,2012-11-05 08:00:00
9:30 AM,48.2,46.4,93,30.04,6.2,Variable,2.3,-,N/A,,Partly Cloudy,0,2012-11-05 08:30:00
10:00 AM,50.0,46.4,87,30.04,6.2,SSW,4.6,-,N/A,,Partly Cloudy,210,2012-11-05 09:00:00
10:30 AM,50.0,48.2,94,30.04,6.2,SSW,3.5,-,N/A,,Partly Cloudy,210,2012-11-05 09:30:00
11:00 AM,51.8,46.4,82,30.04,6.2,West,4.6,-,N/A,,Scattered Clouds,260,2012-11-05 10:00:00
11:30 AM,53.6,44.6,72,30.04,6.2,West,3.5,-,N/A,,Scattered Clouds,270,2012-11-05 10:30:00
12:30 PM,53.6,46.4,77,30.06,6.2,SW,6.9,-,N/A,,Scattered Clouds,230,2012-11-05 11:30:00
1:00 PM,53.6,46.4,77,30.06,6.2,SW,8.1,-,N/A,,Scattered Clouds,220,2012-11-05 12:00:00
1:30 PM,53.6,46.4,77,30.06,6.2,SW,8.1,-,N/A,,Scattered Clouds,220,2012-11-05 12:30:00
2:00 PM,53.6,44.6,72,30.06,6.2,NW,3.5,-,N/A,,Scattered Clouds,320,2012-11-05 13:00:00
2:30 PM,53.6,46.4,77,30.06,6.2,South,4.6,-,N/A,,Scattered Clouds,170,2012-11-05 13:30:00
3:00 PM,57.2,46.4,67,30.04,6.2,West,5.8,-,N/A,,Scattered Clouds,270,2012-11-05 14:00:00
3:30 PM,48.2,46.4,93,30.06,3.7,NNW,5.8,-,N/A,Rain-Thunderstorm,Thunderstorms and Rain,330,2012-11-05 14:30:00
4:00 PM,50.0,46.4,87,30.06,6.2,Variable,2.3,-,N/A,,Mostly Cloudy,0,2012-11-05 15:00:00
4:30 PM,53.6,48.2,82,30.06,6.2,West,3.5,-,N/A,,Scattered Clouds,280,2012-11-05 15:30:00
5:00 PM,53.6,44.6,72,30.06,6.2,WNW,4.6,-,N/A,,Scattered Clouds,290,2012-11-05 16:00:00
5:30 PM,51.8,44.6,76,30.09,6.2,WNW,5.8,-,N/A,,Scattered Clouds,300,2012-11-05 16:30:00
6:00 PM,50.0,44.6,82,30.09,6.2,Calm,Calm,-,N/A,,Scattered Clouds,0,2012-11-05 17:00:00
6:30 PM,48.2,44.6,87,30.09,6.2,Calm,Calm,-,N/A,,Scattered Clouds,0,2012-11-05 17:30:00
7:30 PM,48.2,42.8,82,30.09,6.2,Variable,2.3,-,N/A,,Scattered Clouds,0,2012-11-05 18:30:00
8:00 PM,44.6,41.0,87,30.12,6.2,North,3.5,-,N/A,,Scattered Clouds,350,2012-11-05 19:00:00
8:30 PM,44.6,42.8,93,30.12,6.2,Variable,1.2,-,N/A,,Scattered Clouds,0,2012-11-05 19:30:00
9:00 PM,44.6,41.0,87,30.15,6.2,Calm,Calm,-,N/A,,Scattered Clouds,0,2012-11-05 20:00:00
9:30 PM,42.8,42.8,100,30.15,6.2,Calm,Calm,-,N/A,,Scattered Clouds,0,2012-11-05 20:30:00
10:00 PM,44.6,41.0,87,30.15,6.2,East,3.5,-,N/A,,Scattered Clouds,90,2012-11-05 21:00:00
10:30 PM,42.8,41.0,93,30.15,6.2,Variable,2.3,-,N/A,,Scattered Clouds,0,2012-11-05 21:30:00
11:00 PM,42.8,41.0,93,30.18,5.6,Variable,1.2,-,N/A,,Scattered Clouds,0,2012-11-05 22:00:00
11:30 PM,42.8,41.0,93,30.18,5.6,Variable,1.2,-,N/A,,Scattered Clouds,0,2012-11-05 22:30:00